createdAt,value
2022-11-24T00:01:59.606Z,3.40
2022-11-24T00:04:31.670Z,3.25
2022-11-24T00:07:03.779Z,3.00
2022-11-24T00:09:35.716Z,3.00
2022-11-24T00:12:07.568Z,2.80
2022-11-24T00:14:39.429Z,2.70
2022-11-24T00:17:11.331Z,2.88
2022-11-24T00:19:43.321Z,2.75
2022-11-24T00:22:15.245Z,3.10
2022-11-24T00:24:48.432Z,2.78
2022-11-24T00:27:20.356Z,2.88
2022-11-24T00:29:52.237Z,2.83
2022-11-24T00:32:24.140Z,2.75
2022-11-24T00:34:56.114Z,2.60
2022-11-24T00:37:27.960Z,2.88
2022-11-24T00:39:59.826Z,3.00
2022-11-24T00:42:31.731Z,2.90
2022-11-24T00:45:13.140Z,2.75
2022-11-24T00:47:45.543Z,2.63
2022-11-24T00:50:17.465Z,2.83
2022-11-24T00:52:49.309Z,2.90
2022-11-24T00:55:21.567Z,3.10
2022-11-24T00:57:53.514Z,2.60
2022-11-24T01:00:26.491Z,2.50
2022-11-24T01:02:58.439Z,2.20
2022-11-24T01:05:30.392Z,2.83
2022-11-24T01:08:02.228Z,2.40
2022-11-24T01:10:34.316Z,2.22
2022-11-24T01:13:06.705Z,2.42
2022-11-24T01:15:56.892Z,2.30
2022-11-24T01:18:28.889Z,2.20
2022-11-24T01:21:09.677Z,2.40
2022-11-24T01:23:42.269Z,2.60
2022-11-24T01:26:16.994Z,2.28
2022-11-24T01:28:57.057Z,2.30
2022-11-24T01:31:28.988Z,2.67
2022-11-24T01:34:00.896Z,2.10
2022-11-24T01:36:36.560Z,2.10
2022-11-24T01:39:08.728Z,1.98
2022-11-24T01:41:40.699Z,2.22
2022-11-24T01:44:26.888Z,2.53
2022-11-24T01:47:24.045Z,2.25
2022-11-24T01:49:59.898Z,2.20
2022-11-24T01:52:46.773Z,2.60
2022-11-24T01:55:23.243Z,2.40
2022-11-24T01:58:01.772Z,2.45
2022-11-24T02:00:36.315Z,2.17
2022-11-24T02:03:08.771Z,2.88
2022-11-24T02:05:50.968Z,2.40
2022-11-24T02:08:40.751Z,2.80
2022-11-24T02:11:13.320Z,2.67
2022-11-24T02:13:46.358Z,2.30
2022-11-24T02:16:18.328Z,2.80
2022-11-24T02:18:50.250Z,2.50
2022-11-24T02:21:22.295Z,2.10
2022-11-24T02:24:23.902Z,2.33
2022-11-24T02:26:55.907Z,2.08
2022-11-24T02:29:27.818Z,2.13
2022-11-24T02:32:03.427Z,2.10
2022-11-24T02:34:35.643Z,2.45
2022-11-24T02:37:07.680Z,2.20
2022-11-24T02:39:39.564Z,2.22
2022-11-24T02:42:13.995Z,2.67
2022-11-24T02:44:51.243Z,2.97
2022-11-24T02:47:23.165Z,2.70
2022-11-24T02:49:55.090Z,2.35
2022-11-24T02:52:26.970Z,2.83
2022-11-24T02:54:58.808Z,3.13
2022-11-24T02:57:30.983Z,2.42
2022-11-24T03:00:04.488Z,2.40
2022-11-24T03:02:36.407Z,2.78
2022-11-24T03:05:09.007Z,2.70
2022-11-24T03:07:40.907Z,2.55
2022-11-24T03:10:12.875Z,2.47
2022-11-24T03:12:44.698Z,2.20
2022-11-24T03:15:16.663Z,2.45
2022-11-24T03:17:48.535Z,2.67
2022-11-24T03:20:20.408Z,3.08
2022-11-24T03:22:52.684Z,2.88
2022-11-24T03:25:24.541Z,2.95
2022-11-24T03:27:59.093Z,3.22
2022-11-24T03:30:32.515Z,3.50
2022-11-24T03:33:05.145Z,3.13
2022-11-24T03:35:36.984Z,3.25
2022-11-24T03:38:09.937Z,2.53
2022-11-24T03:40:41.853Z,2.53
2022-11-24T03:43:13.795Z,3.15
2022-11-24T03:45:49.821Z,2.80
2022-11-24T03:48:21.854Z,2.67
2022-11-24T03:50:59.136Z,2.90
2022-11-24T03:53:32.315Z,2.92
2022-11-24T03:56:04.522Z,2.85
2022-11-24T03:58:36.439Z,3.08
2022-11-24T04:01:31.157Z,2.95
2022-11-24T04:04:57.884Z,3.20
2022-11-24T04:07:29.865Z,3.53
2022-11-24T04:10:01.923Z,3.40
2022-11-24T04:12:45.849Z,2.90
2022-11-24T04:15:19.600Z,2.90
2022-11-24T04:17:51.584Z,2.95
2022-11-24T04:20:23.856Z,2.67
2022-11-24T04:22:55.753Z,2.95
2022-11-24T04:25:28.100Z,3.05
2022-11-24T04:28:00.031Z,3.40
2022-11-24T04:30:32.444Z,3.40
2022-11-24T04:33:04.457Z,3.25
2022-11-24T04:35:36.391Z,3.30
2022-11-24T04:38:08.597Z,3.25
2022-11-24T04:40:40.562Z,3.75
2022-11-24T04:43:12.507Z,3.63
2022-11-24T04:45:44.625Z,3.70
2022-11-24T04:48:16.574Z,3.90
2022-11-24T04:50:48.770Z,3.75
2022-11-24T04:53:21.035Z,3.30
2022-11-24T04:55:52.916Z,3.15
2022-11-24T04:58:24.937Z,3.03
2022-11-24T05:00:56.849Z,3.40
2022-11-24T05:03:28.832Z,3.80
2022-11-24T05:06:00.869Z,3.80
2022-11-24T05:08:32.784Z,3.72
2022-11-24T05:11:06.168Z,3.58
2022-11-24T05:13:38.059Z,3.45
2022-11-24T05:16:10.386Z,3.55
2022-11-24T05:18:42.360Z,3.55
2022-11-24T05:21:14.336Z,3.55
2022-11-24T05:23:46.226Z,4.10
2022-11-24T05:26:18.487Z,3.75
2022-11-24T05:28:50.381Z,4.15
2022-11-24T05:31:22.489Z,3.85
2022-11-24T05:33:54.546Z,3.90
2022-11-24T05:36:44.854Z,4.10
2022-11-24T05:39:16.844Z,3.60
2022-11-24T05:41:48.969Z,4.18
2022-11-24T05:44:20.864Z,4.90
2022-11-24T05:46:52.775Z,5.13
2022-11-24T05:49:24.720Z,4.25
2022-11-24T05:51:56.596Z,4.30
2022-11-24T05:54:31.127Z,4.68
2022-11-24T05:57:03.297Z,4.35
2022-11-24T05:59:35.265Z,4.88
2022-11-24T06:02:07.261Z,5.03
2022-11-24T06:04:39.430Z,4.22
2022-11-24T06:07:12.834Z,5.68
2022-11-24T06:09:44.833Z,5.68
2022-11-24T06:12:16.756Z,5.63
2022-11-24T06:14:48.690Z,5.63
2022-11-24T06:17:20.654Z,5.20
2022-11-24T06:19:52.603Z,6.15
2022-11-24T06:22:24.533Z,5.45
2022-11-24T06:24:56.488Z,5.53
2022-11-24T06:27:28.456Z,5.70
2022-11-24T06:30:00.830Z,5.70
2022-11-24T06:32:32.784Z,6.45
2022-11-24T06:35:05.554Z,5.38
2022-11-24T06:37:37.999Z,5.15
2022-11-24T06:40:10.377Z,5.43
2022-11-24T06:42:42.228Z,6.00
2022-11-24T06:45:14.217Z,5.63
2022-11-24T06:47:46.116Z,6.05
2022-11-24T06:50:18.028Z,6.35
2022-11-24T06:52:49.888Z,5.65
2022-11-24T06:55:21.838Z,6.53
2022-11-24T06:57:53.782Z,5.78
2022-11-24T07:00:25.874Z,6.30
2022-11-24T07:02:59.572Z,6.60
2022-11-24T07:05:31.680Z,6.00
2022-11-24T07:08:05.111Z,6.13
2022-11-24T07:10:37.063Z,5.75
2022-11-24T07:13:10.560Z,5.45
2022-11-24T07:15:42.562Z,5.13
2022-11-24T07:18:14.671Z,5.35
2022-11-24T07:20:46.572Z,5.72
2022-11-24T07:23:18.449Z,6.32
2022-11-24T07:25:50.291Z,5.15
2022-11-24T07:28:22.338Z,4.93
2022-11-24T07:30:54.317Z,5.25
2022-11-24T07:33:26.308Z,7.03
2022-11-24T07:36:00.672Z,5.63
2022-11-24T07:38:32.993Z,6.28
2022-11-24T07:41:07.183Z,6.30
2022-11-24T07:43:39.850Z,6.05
2022-11-24T07:46:14.317Z,5.55
2022-11-24T07:48:46.756Z,5.60
2022-11-24T07:51:18.726Z,5.57
2022-11-24T07:53:50.631Z,5.90
2022-11-24T07:56:22.742Z,5.72
2022-11-24T07:58:54.705Z,6.28
2022-11-24T08:01:26.973Z,5.88
2022-11-24T08:03:58.956Z,8.00
2022-11-24T08:06:38.682Z,7.05
2022-11-24T08:09:13.828Z,7.18
2022-11-24T08:11:45.764Z,6.93
2022-11-24T08:14:17.713Z,6.85
2022-11-24T08:16:49.732Z,6.35
2022-11-24T08:19:22.734Z,5.72
2022-11-24T08:21:54.735Z,6.90
2022-11-24T08:24:27.669Z,9.30
2022-11-24T08:26:59.654Z,8.75
2022-11-24T08:29:32.551Z,7.82
2022-11-24T08:32:04.682Z,8.13
2022-11-24T08:34:37.007Z,8.25
2022-11-24T08:37:09.198Z,8.43
2022-11-24T08:39:41.021Z,8.30
2022-11-24T08:42:12.939Z,8.68
2022-11-24T08:44:44.847Z,8.40
2022-11-24T08:47:16.891Z,10.02
2022-11-24T08:49:48.784Z,10.60
2022-11-24T08:52:20.708Z,9.80
2022-11-24T08:54:52.739Z,9.95
2022-11-24T08:57:24.870Z,13.32
2022-11-24T08:59:56.790Z,13.25
2022-11-24T09:02:28.723Z,8.35
2022-11-24T09:05:00.864Z,8.85
2022-11-24T09:07:32.991Z,7.90
2022-11-24T09:10:05.274Z,8.23
2022-11-24T09:12:37.220Z,9.07
2022-11-24T09:15:09.399Z,10.25
2022-11-24T09:17:41.259Z,9.65
2022-11-24T09:20:13.341Z,9.80
2022-11-24T09:22:47.601Z,9.95
2022-11-24T09:25:19.568Z,10.10
2022-11-24T09:27:51.799Z,10.15
2022-11-24T09:30:23.788Z,9.80
2022-11-24T09:32:56.646Z,10.45
2022-11-24T09:35:28.487Z,10.57
2022-11-24T09:38:00.382Z,12.85
2022-11-24T09:40:32.812Z,11.88
2022-11-24T09:43:17.549Z,12.48
2022-11-24T09:46:06.180Z,12.50
2022-11-24T09:48:42.760Z,12.88
2022-11-24T09:51:15.659Z,13.50
2022-11-24T09:54:01.119Z,13.73
2022-11-24T09:56:38.567Z,12.93
2022-11-24T09:59:17.591Z,13.10
2022-11-24T10:01:51.660Z,14.07
2022-11-24T10:04:37.929Z,13.38
2022-11-24T10:07:30.642Z,14.18
2022-11-24T10:10:22.879Z,14.23
2022-11-24T10:13:11.595Z,13.70
2022-11-24T10:16:06.881Z,22.83
2022-11-24T10:18:53.894Z,14.48
2022-11-24T10:21:25.734Z,12.95
2022-11-24T10:24:27.834Z,14.57
2022-11-24T10:27:13.900Z,12.85
2022-11-24T10:29:51.173Z,13.45
2022-11-24T10:32:33.530Z,18.27
2022-11-24T10:35:26.554Z,12.93
2022-11-24T10:38:29.517Z,13.10
2022-11-24T10:41:10.611Z,14.73
2022-11-24T10:43:43.136Z,14.90
2022-11-24T10:46:27.274Z,17.05
2022-11-24T10:49:04.345Z,18.52
2022-11-24T10:51:53.270Z,15.05
2022-11-24T10:54:25.252Z,14.93
2022-11-24T10:56:57.321Z,16.00
2022-11-24T10:59:40.332Z,15.73
2022-11-24T11:02:31.203Z,16.17
2022-11-24T11:05:26.272Z,16.02
2022-11-24T11:08:20.070Z,17.15
2022-11-24T11:11:17.202Z,17.15
2022-11-24T11:13:56.895Z,17.30
2022-11-24T11:16:52.462Z,18.52
2022-11-24T11:19:48.353Z,18.30
2022-11-24T11:22:30.181Z,17.88
2022-11-24T11:25:10.370Z,17.55
2022-11-24T11:27:42.930Z,18.08
2022-11-24T11:36:16.929Z,18.35
2022-11-24T11:38:48.956Z,18.80
2022-11-24T11:41:32.972Z,18.98
2022-11-24T11:44:24.914Z,18.27
2022-11-24T11:46:59.084Z,18.75
2022-11-24T11:49:31.086Z,19.58
2022-11-24T11:52:18.241Z,18.10
2022-11-24T11:55:33.703Z,17.77
2022-11-24T11:58:24.344Z,18.70
2022-11-24T12:01:02.210Z,19.07
2022-11-24T12:03:43.634Z,17.88
2022-11-24T12:06:50.126Z,18.20
2022-11-24T12:09:49.456Z,18.35
2022-11-24T12:12:33.470Z,18.90
2022-11-24T12:15:11.182Z,19.48
2022-11-24T12:18:06.419Z,18.27
2022-11-24T12:21:01.900Z,18.83
2022-11-24T12:24:03.270Z,19.90
2022-11-24T12:26:40.506Z,19.02
2022-11-24T12:29:39.431Z,49.08
2022-11-24T12:32:32.327Z,18.48
2022-11-24T12:35:27.968Z,19.05
2022-11-24T12:38:06.187Z,18.83
2022-11-24T12:41:18.065Z,18.67
2022-11-24T12:43:53.062Z,18.90
2022-11-24T12:46:46.270Z,18.65
2022-11-24T12:49:36.578Z,18.15
2022-11-24T12:52:25.750Z,19.47
2022-11-24T12:54:58.975Z,19.33
2022-11-24T12:57:37.113Z,19.75
2022-11-24T13:00:17.363Z,19.27
2022-11-24T13:03:18.775Z,19.00
2022-11-24T13:06:15.741Z,18.77
2022-11-24T13:08:51.153Z,19.25
2022-11-24T13:11:23.042Z,18.85
2022-11-24T13:14:01.996Z,27.30
2022-11-24T13:16:38.670Z,20.48
2022-11-24T13:19:23.092Z,19.50
2022-11-24T13:22:31.922Z,18.85
2022-11-24T13:25:29.541Z,19.50
2022-11-24T13:28:04.311Z,18.33
2022-11-24T13:30:36.416Z,18.52
2022-11-24T13:33:16.148Z,19.75
2022-11-24T13:36:10.561Z,32.50
2022-11-24T13:38:45.238Z,22.08
2022-11-24T13:41:32.659Z,19.73
2022-11-24T13:44:13.896Z,19.00
2022-11-24T13:47:05.632Z,18.63
2022-11-24T13:49:49.388Z,19.38
2022-11-24T13:52:43.214Z,18.73
2022-11-24T13:55:23.626Z,18.55
2022-11-24T13:58:00.225Z,18.33
2022-11-24T14:00:58.597Z,20.50
2022-11-24T14:04:27.878Z,28.13
2022-11-24T14:06:55.545Z,20.83
2022-11-24T14:09:51.585Z,19.00
2022-11-24T14:12:30.172Z,18.40
2022-11-24T14:15:25.841Z,18.20
2022-11-24T14:17:57.913Z,18.92
2022-11-24T14:20:30.311Z,18.40
2022-11-24T14:23:02.370Z,20.58
2022-11-24T14:25:35.441Z,19.50
2022-11-24T14:28:21.579Z,21.35
2022-11-24T14:31:22.909Z,20.55
2022-11-24T14:34:16.620Z,25.42
2022-11-24T14:36:50.274Z,48.58
2022-11-24T14:39:24.010Z,82.65
2022-11-24T14:42:14.453Z,65.68
2022-11-24T14:44:59.280Z,50.05
2022-11-24T14:47:37.171Z,45.42
2022-11-24T14:50:16.231Z,42.67
2022-11-24T14:52:56.436Z,36.00
2022-11-24T14:55:32.964Z,30.98
2022-11-24T14:58:21.256Z,26.42
2022-11-24T15:01:27.879Z,21.67
2022-11-24T15:07:29.459Z,20.10
2022-11-24T15:10:06.168Z,20.77
2022-11-24T15:12:40.731Z,19.88
2022-11-24T15:15:15.666Z,20.55
2022-11-24T15:17:52.701Z,21.50
2022-11-24T15:20:30.316Z,22.67
2022-11-24T15:23:25.722Z,72.72
2022-11-24T15:25:58.196Z,26.02
2022-11-24T15:28:31.569Z,22.48
2022-11-24T15:31:14.183Z,22.35
2022-11-24T15:33:46.697Z,24.55
2022-11-24T15:36:20.829Z,23.02
2022-11-24T15:38:52.807Z,23.20
2022-11-24T15:41:33.943Z,22.13
2022-11-24T15:44:05.941Z,23.45
2022-11-24T15:46:39.482Z,21.90
2022-11-24T15:49:11.547Z,22.17
2022-11-24T15:51:45.739Z,24.75
2022-11-24T15:54:19.159Z,25.55
2022-11-24T15:56:51.117Z,24.65
2022-11-24T15:59:23.063Z,26.15
2022-11-24T16:01:55.001Z,26.50
2022-11-24T16:04:27.981Z,39.13
2022-11-24T16:07:00.619Z,24.67
2022-11-24T16:09:32.562Z,27.02
2022-11-24T16:12:04.945Z,27.65
2022-11-24T16:14:37.234Z,30.23
2022-11-24T16:17:09.420Z,29.90
2022-11-24T16:19:42.159Z,33.30
2022-11-24T16:22:14.406Z,31.87
2022-11-24T16:24:46.448Z,31.40
2022-11-24T16:27:18.334Z,31.13
2022-11-24T16:29:50.265Z,29.88
2022-11-24T16:32:22.209Z,30.17
2022-11-24T16:34:57.253Z,29.23
2022-11-24T16:37:32.451Z,27.73
2022-11-24T16:40:07.199Z,27.30
2022-11-24T16:42:39.403Z,28.20
2022-11-24T16:45:13.186Z,28.75
2022-11-24T16:47:46.784Z,30.30
2022-11-24T16:50:18.686Z,27.63
2022-11-24T16:52:53.912Z,31.20
2022-11-24T16:55:25.787Z,28.50
2022-11-24T16:57:57.720Z,29.30
2022-11-24T17:00:31.867Z,28.95
2022-11-24T17:03:03.781Z,28.60
2022-11-24T17:05:39.089Z,29.98
2022-11-24T17:08:11.646Z,26.55
2022-11-24T17:10:43.575Z,27.27
2022-11-24T17:13:19.672Z,26.98
2022-11-24T17:15:54.289Z,27.13
2022-11-24T17:18:27.809Z,26.60
2022-11-24T17:21:05.953Z,30.52
2022-11-24T17:23:44.739Z,27.83
2022-11-24T17:26:19.429Z,26.38
2022-11-24T17:28:51.669Z,26.05
2022-11-24T17:31:27.312Z,25.80
2022-11-24T17:34:00.686Z,27.88
2022-11-24T17:36:38.041Z,29.30
2022-11-24T17:39:13.477Z,28.48
2022-11-24T17:41:45.493Z,28.20
2022-11-24T17:44:20.168Z,26.63
2022-11-24T17:46:52.133Z,30.27
2022-11-24T17:49:24.561Z,28.08
2022-11-24T17:51:56.518Z,26.38
2022-11-24T17:54:45.892Z,26.60
2022-11-24T17:57:19.288Z,27.83
2022-11-24T17:59:51.566Z,27.27
2022-11-24T18:02:23.658Z,28.65
2022-11-24T18:04:55.625Z,25.00
2022-11-24T18:07:27.575Z,23.63
2022-11-24T18:09:59.455Z,23.55
2022-11-24T18:12:35.425Z,26.25
2022-11-24T18:15:07.755Z,25.08
2022-11-24T18:17:39.811Z,23.58
2022-11-24T18:20:12.045Z,25.08
2022-11-24T18:23:04.538Z,22.73
2022-11-24T18:25:37.196Z,21.73
2022-11-24T18:28:09.194Z,20.90
2022-11-24T18:30:41.225Z,20.88
2022-11-24T18:33:13.253Z,21.05
2022-11-24T18:36:00.812Z,19.85
2022-11-24T18:38:36.952Z,19.55
2022-11-24T18:41:10.573Z,17.70
2022-11-24T18:43:43.144Z,18.02
2022-11-24T18:46:17.121Z,17.33
2022-11-24T18:48:50.484Z,16.60
2022-11-24T18:51:23.828Z,15.63
2022-11-24T18:53:58.254Z,16.58
2022-11-24T18:56:33.348Z,15.02
2022-11-24T18:59:05.284Z,15.57
2022-11-24T19:01:39.863Z,20.50
2022-11-24T19:04:12.922Z,18.92
2022-11-24T19:06:45.174Z,16.17
2022-11-24T19:09:22.674Z,14.55
2022-11-24T19:11:54.618Z,14.38
2022-11-24T19:14:26.592Z,14.48
2022-11-24T19:17:02.044Z,13.40
2022-11-24T19:19:34.566Z,14.70
2022-11-24T19:22:06.473Z,14.02
2022-11-24T19:24:38.677Z,13.95
2022-11-24T19:27:10.941Z,15.23
2022-11-24T19:29:47.327Z,15.82
2022-11-24T19:32:19.557Z,13.70
2022-11-24T19:34:51.457Z,13.10
2022-11-24T19:37:23.603Z,13.23
2022-11-24T19:39:58.057Z,13.60
2022-11-24T19:42:30.104Z,14.50
2022-11-24T19:45:02.027Z,15.65
2022-11-24T19:47:42.867Z,14.38
2022-11-24T19:50:18.789Z,16.75
2022-11-24T19:52:51.482Z,15.25
2022-11-24T19:55:23.394Z,13.10
2022-11-24T19:57:55.368Z,15.15
2022-11-24T20:00:41.616Z,13.63
2022-11-24T20:03:26.240Z,11.75
2022-11-24T20:06:03.482Z,11.77
2022-11-24T20:08:37.284Z,11.32
2022-11-24T20:11:13.250Z,12.45
2022-11-24T20:13:46.603Z,10.43
2022-11-24T20:16:26.606Z,10.57
2022-11-24T20:19:01.096Z,9.40
2022-11-24T20:21:34.369Z,8.90
2022-11-24T20:24:10.256Z,9.27
2022-11-24T20:26:45.677Z,9.82
2022-11-24T20:29:18.171Z,9.27
2022-11-24T20:31:52.207Z,9.23
2022-11-24T20:34:25.006Z,9.23
2022-11-24T20:36:57.003Z,8.85
2022-11-24T20:39:28.938Z,9.73
2022-11-24T20:42:00.909Z,9.85
2022-11-24T20:44:33.096Z,9.43
2022-11-24T20:47:07.134Z,9.38
2022-11-24T20:49:38.994Z,10.65
2022-11-24T20:52:11.669Z,10.65
2022-11-24T20:54:46.719Z,9.35
2022-11-24T20:57:18.806Z,9.98
2022-11-24T20:59:52.364Z,10.60
2022-11-24T21:02:25.984Z,11.10
2022-11-24T21:04:57.996Z,9.80
2022-11-24T21:07:29.921Z,10.35
2022-11-24T21:10:02.852Z,10.25
2022-11-24T21:12:35.002Z,9.80
2022-11-24T21:15:07.757Z,10.13
2022-11-24T21:17:39.681Z,9.50
2022-11-24T21:20:11.972Z,9.13
2022-11-24T21:22:43.873Z,8.93
2022-11-24T21:25:15.882Z,8.45
2022-11-24T21:27:47.816Z,9.18
2022-11-24T21:30:19.653Z,9.23
2022-11-24T21:32:51.604Z,7.78
2022-11-24T21:35:23.465Z,8.43
2022-11-24T21:37:55.434Z,9.02
2022-11-24T21:40:35.089Z,8.86
2022-11-24T21:47:19.529Z,8.02
2022-11-24T21:49:51.454Z,8.43
2022-11-24T21:52:23.300Z,8.68
2022-11-24T21:54:55.273Z,9.20
2022-11-24T21:57:28.243Z,9.18
2022-11-24T22:00:01.593Z,8.75
2022-11-24T22:02:38.327Z,8.75
2022-11-24T22:05:10.361Z,8.48
2022-11-24T22:07:42.351Z,11.20
2022-11-24T22:10:14.474Z,6.80
2022-11-24T22:12:46.419Z,7.50
2022-11-24T22:15:18.370Z,7.00
2022-11-24T22:17:50.249Z,8.32
2022-11-24T22:20:22.101Z,8.30
2022-11-24T22:22:54.040Z,7.70
2022-11-24T22:25:29.686Z,7.70
2022-11-24T22:28:01.625Z,7.32
2022-11-24T22:30:33.528Z,9.63
2022-11-24T22:33:05.422Z,12.32
2022-11-24T22:35:37.282Z,6.97
2022-11-24T22:38:09.143Z,6.95
2022-11-24T22:40:41.179Z,6.40
2022-11-24T22:43:13.200Z,6.15
2022-11-24T22:45:48.240Z,6.32
2022-11-24T22:48:20.229Z,5.63
2022-11-24T22:50:52.124Z,5.43
2022-11-24T22:53:23.956Z,5.10
2022-11-24T22:55:55.769Z,5.07
2022-11-24T22:58:27.673Z,4.88
2022-11-24T23:01:36.917Z,4.85
2022-11-24T23:04:08.937Z,5.05
2022-11-24T23:06:41.113Z,4.63
2022-11-24T23:09:13.191Z,5.05
2022-11-24T23:11:45.041Z,5.63
2022-11-24T23:14:16.962Z,5.30
2022-11-24T23:16:48.927Z,5.25
2022-11-24T23:19:20.943Z,4.75
2022-11-24T23:21:53.086Z,5.90
2022-11-24T23:24:24.909Z,7.05
2022-11-24T23:26:56.780Z,6.53
2022-11-24T23:29:28.647Z,6.43
2022-11-24T23:32:00.577Z,6.10
2022-11-24T23:34:32.623Z,7.53
2022-11-24T23:37:04.560Z,6.93
2022-11-24T23:39:36.478Z,6.78
2022-11-24T23:42:08.526Z,6.45
2022-11-24T23:44:40.438Z,6.75
2022-11-24T23:47:12.282Z,7.10
2022-11-24T23:49:44.130Z,6.63
2022-11-24T23:52:16.037Z,7.00
2022-11-24T23:54:47.867Z,6.70
2022-11-24T23:57:19.751Z,6.53
2022-11-24T23:59:51.610Z,6.45
